Time;durP1;ratioP1;P1;durP2;ratioP2;P2;SDS_P1;SDS_P2;PMS_P1;PMS_P2;Temp;Humidity;BMP_temperature;BMP_pressure;BME280_temperature;BME280_humidity;BME280_pressure;Samples;Min_cycle;Max_cycle;Signal;HPM_P1;HPM_P2
2022/01/28 00:01:46;;;;;;;21.92;2.28;;;;;;;5.05;75.43;103157.50;5026425;28;20030;-58
2022/01/28 00:04:13;;;;;;;19.58;2.60;;;;;;;5.11;75.06;103151.56;5028583;28;20017;-57
2022/01/28 00:06:39;;;;;;;21.50;3.03;;;;;;;5.12;74.91;103159.44;5016304;28;20030;-58
2022/01/28 00:09:04;;;;;;;16.63;2.28;;;;;;;5.17;74.94;103167.41;5008377;28;20091;-59
2022/01/28 00:11:30;;;;;;;14.95;2.40;;;;;;;5.17;74.92;103164.78;5007285;28;20036;-58
2022/01/28 00:14:07;;;;;;;19.65;2.95;;;;;;;5.14;75.08;103164.72;5007334;28;20073;-59
2022/01/28 00:20:01;;;;;;;19.80;2.75;;;;;;;5.12;75.35;103161.19;5008680;28;20413;-58
2022/01/28 00:38:36;;;;;;;17.50;2.22;;;;;;;5.21;76.25;103187.56;5007884;28;20096;-57
2022/01/28 00:41:02;;;;;;;22.98;2.90;;;;;;;5.20;76.49;103174.47;5006908;28;20432;-58
2022/01/28 00:43:27;;;;;;;16.70;2.15;;;;;;;5.22;76.63;103181.50;4990182;28;20026;-58
2022/01/28 00:45:53;;;;;;;22.23;3.15;;;;;;;5.26;76.53;103180.72;5006683;28;20487;-57
2022/01/28 00:48:18;;;;;;;17.98;2.65;;;;;;;5.30;76.46;103182.56;5006820;28;20040;-57
2022/01/28 00:50:44;;;;;;;16.83;2.53;;;;;;;5.33;76.35;103199.19;5007547;28;20022;-59
2022/01/28 00:53:10;;;;;;;18.38;2.60;;;;;;;5.34;76.38;103203.56;5006495;28;20028;-57
2022/01/28 00:55:35;;;;;;;14.55;2.55;;;;;;;5.35;76.36;103192.25;5007555;28;20100;-57
2022/01/28 00:58:01;;;;;;;18.95;2.40;;;;;;;5.41;76.20;103195.03;5005725;28;20025;-54
2022/01/28 01:00:26;;;;;;;19.67;2.33;;;;;;;5.41;76.11;103201.16;5006056;28;20213;-58
2022/01/28 01:02:52;;;;;;;16.90;2.17;;;;;;;5.43;76.09;103201.22;5025194;28;20041;-58
2022/01/28 01:05:18;;;;;;;12.48;1.98;;;;;;;5.43;76.10;103199.50;5026114;28;20044;-58
2022/01/28 01:07:43;;;;;;;19.45;2.33;;;;;;;5.40;76.41;103194.19;5027034;28;20021;-58
2022/01/28 01:10:09;;;;;;;17.70;2.10;;;;;;;5.43;75.86;103195.97;5026924;28;20533;-57
2022/01/28 01:12:41;;;;;;;15.10;2.17;;;;;;;5.45;75.67;103202.16;5025168;28;20029;-57
2022/01/28 01:15:07;;;;;;;18.02;2.80;;;;;;;5.49;75.73;103197.84;5019229;28;20048;-58
2022/01/28 01:17:37;;;;;;;15.23;1.75;;;;;;;5.47;75.63;103189.06;5007535;28;20026;-58
2022/01/28 01:23:03;;;;;;;18.65;2.65;;;;;;;5.47;74.96;103197.81;4994261;28;20046;-59
2022/01/28 01:25:29;;;;;;;20.00;2.10;;;;;;;5.48;74.84;103207.41;5008371;28;20025;-58
2022/01/28 01:27:56;;;;;;;13.27;2.25;;;;;;;5.51;74.59;103210.13;5025306;28;20076;-57
2022/01/28 01:30:24;;;;;;;21.67;3.33;;;;;;;5.47;74.75;103216.13;5024699;28;20157;-59
2022/01/28 01:32:50;;;;;;;17.13;2.00;;;;;;;5.48;74.75;103225.72;5026647;28;20099;-59
2022/01/28 01:35:15;;;;;;;23.67;2.83;;;;;;;5.47;74.49;103226.59;5026623;28;20412;-59
2022/01/28 01:37:41;;;;;;;16.67;2.05;;;;;;;5.47;74.60;103236.16;5018278;28;20130;-58
2022/01/28 01:40:07;;;;;;;12.45;2.10;;;;;;;5.44;74.92;103237.84;5006010;28;20064;-59
2022/01/28 01:53:13;;;;;;;12.75;1.80;;;;;;;5.10;77.05;103246.50;5007600;28;20100;-60
2022/01/28 01:55:39;;;;;;;23.80;2.47;;;;;;;5.10;77.37;103255.25;5006823;28;20057;-58
2022/01/28 01:58:04;;;;;;;18.75;2.15;;;;;;;5.11;77.66;103254.38;5003256;28;20045;-58
2022/01/28 02:00:29;;;;;;;19.58;2.20;;;;;;;5.17;77.58;103258.91;5005030;28;20465;-58
2022/01/28 02:02:55;;;;;;;15.90;2.40;;;;;;;5.22;77.73;103257.31;5016701;28;20026;-64
2022/01/28 02:05:20;;;;;;;21.90;2.63;;;;;;;5.25;77.95;103262.63;5150301;22;20100;-57
2022/01/28 02:07:46;;;;;;;15.50;2.25;;;;;;;5.28;77.92;103256.59;5022867;28;20448;-59
2022/01/28 02:10:12;;;;;;;19.08;2.50;;;;;;;5.28;78.25;103246.13;5025266;28;20471;-60
2022/01/28 02:13:03;;;;;;;21.05;2.95;;;;;;;5.23;78.82;103259.06;5027626;28;20720;-56
2022/01/28 02:15:28;;;;;;;16.40;2.47;;;;;;;5.22;79.69;103275.59;5022150;28;20048;-60
2022/01/28 02:17:54;;;;;;;19.00;2.40;;;;;;;5.24;80.08;103270.44;5024604;28;20033;-57
2022/01/28 02:20:25;;;;;;;21.13;4.10;;;;;;;5.30;80.29;103273.22;5025300;28;20040;-60
2022/01/28 02:22:53;;;;;;;18.23;2.25;;;;;;;5.31;80.46;103262.81;5025526;28;20041;-59
2022/01/28 02:25:26;;;;;;;22.02;2.90;;;;;;;5.36;80.75;103264.66;5025987;28;20472;-57
2022/01/28 02:27:52;;;;;;;21.80;2.65;;;;;;;5.33;81.24;103268.06;5024512;28;20033;-59
2022/01/28 02:30:17;;;;;;;18.35;2.50;;;;;;;5.33;81.72;103264.56;5027565;28;20423;-58
2022/01/28 02:32:44;;;;;;;27.58;2.35;;;;;;;5.30;81.71;103261.00;5025105;28;20388;-58
2022/01/28 02:35:10;;;;;;;27.70;3.45;;;;;;;5.23;81.81;103264.31;5024152;28;20029;-58
2022/01/28 02:37:36;;;;;;;22.25;2.67;;;;;;;5.20;82.04;103269.44;5025194;28;20379;-57
2022/01/28 02:40:02;;;;;;;19.23;2.30;;;;;;;5.14;82.55;103266.66;5025175;28;20036;-59
2022/01/28 02:42:44;;;;;;;10.35;1.83;;;;;;;5.08;82.47;103274.34;5025408;28;20115;-57
2022/01/28 02:45:09;;;;;;;14.40;2.22;;;;;;;5.00;82.76;103267.13;5024471;28;20029;-59
2022/01/28 02:47:38;;;;;;;25.02;2.78;;;;;;;4.93;82.84;103273.03;5025994;28;20101;-61
2022/01/28 02:50:07;;;;;;;16.23;2.08;;;;;;;4.86;83.13;103269.38;5032907;28;20025;-59
2022/01/28 02:52:49;;;;;;;;;;;;;;;4.84;83.09;103267.56;5045879;28;20029;-59
2022/01/28 02:55:15;;;;;;;12.90;1.90;;;;;;;4.80;83.08;103280.53;5043480;28;19913;-58
2022/01/28 02:57:51;;;;;;;29.17;2.55;;;;;;;4.71;83.42;103284.56;5045776;28;20498;-59
2022/01/28 03:00:17;;;;;;;19.75;2.50;;;;;;;4.68;83.61;103295.81;5045413;28;20040;-59
2022/01/28 03:02:42;;;;;;;23.23;3.22;;;;;;;4.60;84.11;103286.88;5046284;28;20029;-60
2022/01/28 03:05:31;;;;;;;21.15;2.35;;;;;;;4.62;84.32;103299.13;5024835;28;20046;-59
2022/01/28 03:07:53;;;;;;;25.50;2.47;;;;;;;4.63;84.47;103293.06;5024536;28;20046;-61
2022/01/28 03:10:29;;;;;;;28.45;2.47;;;;;;;4.62;84.72;103300.84;5025696;28;20029;-58
2022/01/28 03:13:17;;;;;;;14.82;2.92;;;;;;;4.64;84.71;103296.56;5025129;28;20037;-58
2022/01/28 03:15:50;;;;;;;21.08;3.03;;;;;;;4.62;84.58;103311.31;5027134;28;20022;-59
2022/01/28 03:18:20;;;;;;;23.08;2.92;;;;;;;4.58;84.59;103317.28;5028373;28;20037;-56
2022/01/28 03:23:19;;;;;;;26.10;2.92;;;;;;;4.59;84.19;103305.97;5027448;28;20480;-59
2022/01/28 03:25:46;;;;;;;24.02;2.33;;;;;;;4.65;83.58;103306.19;5028757;28;20032;-58
2022/01/28 03:28:13;;;;;;;18.60;2.72;;;;;;;4.67;82.98;103309.72;5029708;28;20029;-59
2022/01/28 03:30:38;;;;;;;15.45;2.08;;;;;;;4.72;82.37;103308.13;5027308;28;20112;-58
2022/01/28 03:33:03;;;;;;;20.00;2.83;;;;;;;4.77;81.73;103308.28;5046382;28;20133;-58
2022/01/28 03:35:30;;;;;;;23.17;2.75;;;;;;;4.76;81.43;103309.13;5048373;28;20045;-58
2022/01/28 03:38:02;;;;;;;21.85;2.60;;;;;;;4.78;81.00;103312.66;5047854;28;20029;-59
2022/01/28 03:40:30;;;;;;;25.17;2.35;;;;;;;4.78;80.42;103312.66;5047992;28;20467;-60
2022/01/28 03:42:56;;;;;;;18.27;2.85;;;;;;;4.79;80.08;103311.84;5047693;28;20074;-58
2022/01/28 03:45:21;;;;;;;29.98;2.42;;;;;;;4.77;79.88;103313.50;5042488;28;20037;-57
2022/01/28 03:47:46;;;;;;;18.05;1.98;;;;;;;4.79;79.06;103324.91;5027465;28;20104;-58
2022/01/28 03:50:12;;;;;;;15.90;2.38;;;;;;;4.78;78.85;103325.72;5028013;28;20422;-57
2022/01/28 03:52:37;;;;;;;14.75;2.08;;;;;;;4.74;78.48;103309.06;5027243;28;20055;-60
2022/01/28 03:55:03;;;;;;;13.55;2.60;;;;;;;4.67;78.52;103317.56;5027692;28;20063;-60
2022/01/28 03:57:28;;;;;;;18.55;2.60;;;;;;;4.62;78.74;103327.88;5028413;28;20021;-58
2022/01/28 03:59:53;;;;;;;11.93;1.95;;;;;;;4.60;78.25;103324.31;5026787;28;20527;-59
2022/01/28 04:02:22;;;;;;;11.68;1.77;;;;;;;4.56;77.79;103332.91;5028449;28;20432;-59
2022/01/28 04:12:51;;;;;;;16.20;2.17;;;;;;;4.48;76.09;103340.47;5027892;28;20043;-58
2022/01/28 04:18:01;;;;;;;15.40;1.92;;;;;;;4.38;76.01;103349.75;5027293;28;20067;-59
2022/01/28 04:20:26;;;;;;;14.25;2.00;;;;;;;4.40;75.95;103350.66;5026109;28;20517;-57
2022/01/28 04:22:51;;;;;;;14.93;1.83;;;;;;;4.37;75.92;103354.91;5026384;28;20514;-58
2022/01/28 04:25:17;;;;;;;8.80;1.60;;;;;;;4.29;76.34;103360.78;5027625;28;20367;-58
2022/01/28 04:27:42;;;;;;;9.68;1.40;;;;;;;4.28;76.36;103350.28;5028197;28;20026;-59
2022/01/28 04:30:08;;;;;;;9.73;2.20;;;;;;;4.24;76.39;103358.84;5027376;28;20494;-57
2022/01/28 04:32:35;;;;;;;9.80;1.42;;;;;;;4.20;76.45;103365.69;5027314;28;20685;-59
2022/01/28 04:35:00;;;;;;;15.80;2.33;;;;;;;4.15;76.73;103365.53;5026105;28;20033;-59
2022/01/28 04:37:34;;;;;;;14.23;2.08;;;;;;;4.17;76.95;103361.25;5027173;28;20021;-59
2022/01/28 04:45:11;;;;;;;11.00;2.13;;;;;;;4.07;76.94;103371.31;5027578;28;20045;-59
2022/01/28 04:47:46;;;;;;;12.70;2.00;;;;;;;3.97;77.35;103372.72;5007962;28;20029;-59
2022/01/28 05:03:23;;;;;;;12.75;1.60;;;;;;;3.67;79.41;103377.78;5027396;28;20468;-59
2022/01/28 05:28:48;;;;;;;13.38;1.58;;;;;;;3.65;79.18;103382.06;5025834;28;20037;-61
2022/01/28 05:31:13;;;;;;;10.80;1.60;;;;;;;3.62;79.26;103379.38;5027517;28;20048;-60
2022/01/28 05:33:38;;;;;;;13.82;1.73;;;;;;;3.62;79.15;103383.69;5026434;28;20468;-60
2022/01/28 05:36:04;;;;;;;19.40;2.13;;;;;;;3.60;79.31;103386.22;5027974;28;20025;-57
2022/01/28 05:38:29;;;;;;;12.85;1.88;;;;;;;3.61;79.24;103389.72;5032772;28;20033;-59
2022/01/28 05:40:55;;;;;;;13.43;2.17;;;;;;;3.60;79.32;103390.53;5027117;28;20434;-57
2022/01/28 05:43:20;;;;;;;12.82;1.90;;;;;;;3.57;79.34;103390.44;5025799;28;20370;-59
2022/01/28 05:45:45;;;;;;;11.07;1.90;;;;;;;3.51;79.33;103388.50;5025957;28;20025;-58
2022/01/28 05:48:11;;;;;;;13.73;2.10;;;;;;;3.45;79.53;103394.38;5026448;28;20036;-59
2022/01/28 05:50:37;;;;;;;15.13;2.03;;;;;;;3.38;79.83;103405.41;5026365;28;20048;-57
2022/01/28 05:53:03;;;;;;;21.88;2.08;;;;;;;3.28;80.11;103406.75;5026914;28;20468;-59
2022/01/28 05:55:28;;;;;;;14.65;1.80;;;;;;;3.16;80.66;103413.28;5027003;28;20078;-59
2022/01/28 05:57:54;;;;;;;11.45;1.60;;;;;;;3.12;80.95;103413.09;5026147;28;20104;-59
2022/01/28 06:00:19;;;;;;;13.57;2.03;;;;;;;3.12;81.37;103415.69;5026115;28;20044;-59
2022/01/28 06:02:45;;;;;;;20.92;2.25;;;;;;;3.15;81.59;103421.94;5026412;28;20034;-57
2022/01/28 06:05:11;;;;;;;21.92;2.65;;;;;;;3.16;81.40;103422.81;5026318;28;20038;-59
2022/01/28 06:07:41;;;;;;;15.93;1.52;;;;;;;3.21;81.39;103441.22;5026630;28;20065;-59
2022/01/28 06:10:11;;;;;;;12.02;2.00;;;;;;;3.13;81.46;103444.44;5026082;28;20104;-59
2022/01/28 06:12:43;;;;;;;15.98;2.00;;;;;;;3.06;81.62;103441.50;5025186;28;20087;-59
2022/01/28 06:15:10;;;;;;;11.18;2.15;;;;;;;3.05;82.06;103438.03;5023147;28;20391;-60
2022/01/28 06:17:35;;;;;;;14.82;2.10;;;;;;;3.02;82.25;103438.81;5026121;28;20472;-60
2022/01/28 06:20:05;;;;;;;25.70;2.20;;;;;;;2.98;81.96;103452.53;5025478;28;20044;-57
2022/01/28 06:22:31;;;;;;;11.40;2.42;;;;;;;2.93;81.97;103461.88;5024854;28;20029;-60
2022/01/28 06:24:56;;;;;;;12.20;2.25;;;;;;;2.82;82.40;103451.00;5026457;28;20025;-59
2022/01/28 06:27:22;;;;;;;14.00;1.35;;;;;;;2.76;82.62;103462.06;5024643;28;20033;-59
2022/01/28 06:29:48;;;;;;;15.70;2.05;;;;;;;2.68;82.94;103460.84;5023924;28;20025;-59
2022/01/28 06:32:14;;;;;;;11.57;1.92;;;;;;;2.73;83.38;103461.94;5025684;28;20388;-60
2022/01/28 06:34:39;;;;;;;16.00;2.65;;;;;;;2.74;83.48;103463.72;5026418;28;20054;-59
2022/01/28 06:37:05;;;;;;;15.70;2.60;;;;;;;2.78;83.68;103465.66;5024003;28;20069;-60
2022/01/28 06:39:32;;;;;;;10.02;1.88;;;;;;;2.78;83.90;103478.66;5026409;28;20430;-58
2022/01/28 06:41:58;;;;;;;19.17;1.80;;;;;;;2.80;83.77;103477.81;5024092;28;20113;-57
2022/01/28 06:44:24;;;;;;;17.02;2.78;;;;;;;2.82;83.79;103490.06;5025309;28;20104;-60
2022/01/28 06:46:49;;;;;;;14.00;3.63;;;;;;;2.86;83.71;103496.31;5026459;28;20018;-60
2022/01/28 06:49:14;;;;;;;18.60;2.35;;;;;;;2.90;83.87;103500.81;5026059;28;20036;-59
2022/01/28 06:51:40;;;;;;;14.15;2.65;;;;;;;2.93;83.83;103503.56;5031472;28;20025;-60
2022/01/28 06:54:05;;;;;;;13.75;2.25;;;;;;;2.95;83.57;103504.50;5029697;28;20030;-60
2022/01/28 06:56:30;;;;;;;20.92;2.88;;;;;;;3.01;83.43;103502.13;5028423;28;20488;-59
2022/01/28 06:58:55;;;;;;;21.63;3.97;;;;;;;2.99;83.64;103503.81;5027505;28;20541;-59
2022/01/28 07:01:21;;;;;;;12.50;2.95;;;;;;;2.93;83.46;103513.97;5028815;28;20092;-61
2022/01/28 07:03:46;;;;;;;21.08;3.13;;;;;;;2.90;83.55;103503.44;5028827;28;20322;-60
2022/01/28 07:06:13;;;;;;;18.50;4.60;;;;;;;2.95;83.62;103506.22;5029602;28;20045;-60
2022/01/28 07:08:38;;;;;;;15.25;3.28;;;;;;;2.88;83.63;103499.84;5028402;28;20032;-60
2022/01/28 07:11:03;;;;;;;15.60;3.42;;;;;;;2.89;83.81;103493.84;5029270;28;20033;-61
2022/01/28 07:13:29;;;;;;;16.40;3.10;;;;;;;2.81;83.82;103495.22;5029147;28;20068;-60
2022/01/28 07:15:54;;;;;;;31.23;3.47;;;;;;;2.86;83.74;103505.00;5044549;28;20108;-60
2022/01/28 07:18:20;;;;;;;15.95;2.90;;;;;;;2.92;84.16;103509.56;5049188;28;20074;-58
2022/01/28 07:20:45;;;;;;;23.15;3.63;;;;;;;3.00;84.00;103497.75;5048817;28;20033;-59
2022/01/28 07:23:10;;;;;;;17.15;2.97;;;;;;;3.06;83.56;103498.81;5049410;28;20025;-59
2022/01/28 07:25:36;;;;;;;21.48;2.83;;;;;;;3.00;83.52;103509.88;5049041;28;20570;-60
2022/01/28 07:28:01;;;;;;;20.83;2.38;;;;;;;2.94;83.45;103515.75;5034424;28;20484;-59
2022/01/28 07:30:27;;;;;;;12.82;2.45;;;;;;;2.90;83.64;103524.25;5028337;28;20037;-59
2022/01/28 07:32:52;;;;;;;17.52;2.88;;;;;;;2.90;83.81;103526.88;5027675;28;20351;-60
2022/01/28 07:35:18;;;;;;;15.93;3.05;;;;;;;2.90;83.76;103524.25;5028311;28;20073;-59
2022/01/28 07:37:43;;;;;;;22.02;2.58;;;;;;;2.96;84.10;103534.94;5029076;28;20058;-59
2022/01/28 07:40:09;;;;;;;20.00;2.72;;;;;;;3.05;84.19;103528.31;5028947;28;20486;-60
2022/01/28 07:42:37;;;;;;;16.50;1.92;;;;;;;3.08;83.91;103531.06;5028297;28;20045;-58
2022/01/28 07:45:04;;;;;;;17.40;2.30;;;;;;;3.07;83.82;103545.78;5027557;28;20124;-57
2022/01/28 07:47:29;;;;;;;16.83;2.13;;;;;;;3.00;83.70;103556.78;5024343;28;20029;-57
2022/01/28 07:49:54;;;;;;;25.55;3.10;;;;;;;3.04;83.95;103558.69;5013228;28;20022;-57
2022/01/28 07:52:20;;;;;;;15.07;2.67;;;;;;;3.05;83.61;103559.59;5016543;28;20017;-56
2022/01/28 07:54:49;;;;;;;14.18;2.38;;;;;;;3.02;83.46;103563.84;5022848;28;20033;-56
2022/01/28 07:57:14;;;;;;;19.48;3.10;;;;;;;3.06;83.43;103561.34;5016293;28;20033;-55
2022/01/28 07:59:40;;;;;;;24.95;2.97;;;;;;;2.96;83.35;103563.59;5018668;28;20483;-56
2022/01/28 08:02:06;;;;;;;20.33;2.40;;;;;;;3.02;83.76;103576.88;5022378;28;20037;-57
2022/01/28 08:04:31;;;;;;;22.05;2.78;;;;;;;3.04;83.75;103574.31;5022863;28;20072;-56
2022/01/28 08:06:56;;;;;;;28.70;3.00;;;;;;;3.13;83.79;103573.84;5007613;28;20105;-56
2022/01/28 08:09:21;;;;;;;20.70;3.17;;;;;;;3.19;83.61;103576.66;5016680;28;20018;-60
2022/01/28 08:11:47;;;;;;;14.65;2.30;;;;;;;3.20;83.45;103581.06;5015329;28;20025;-59
2022/01/28 08:14:14;;;;;;;19.33;3.42;;;;;;;3.29;83.32;103584.03;5016783;28;20562;-62
2022/01/28 08:16:39;;;;;;;10.07;2.28;;;;;;;3.37;83.23;103583.50;5018840;28;20026;-60
2022/01/28 08:19:05;;;;;;;18.33;2.95;;;;;;;3.42;82.97;103587.16;5030114;28;20029;-59
2022/01/28 08:21:30;;;;;;;18.45;2.22;;;;;;;3.49;82.93;103588.31;5028674;28;20022;-61
2022/01/28 08:23:55;;;;;;;16.75;2.63;;;;;;;3.55;82.60;103588.53;5027471;28;20456;-54
2022/01/28 08:26:21;;;;;;;18.23;3.05;;;;;;;3.59;82.38;103593.06;5026019;28;20022;-57
2022/01/28 08:28:47;;;;;;;15.15;3.08;;;;;;;3.61;82.28;103582.69;5026497;28;20104;-54
2022/01/28 08:31:13;;;;;;;14.27;3.50;;;;;;;3.66;81.94;103583.75;5027198;28;20479;-57
2022/01/28 08:33:38;;;;;;;15.90;2.13;;;;;;;3.72;81.84;103591.81;5026985;28;20120;-55
2022/01/28 08:36:04;;;;;;;16.60;3.10;;;;;;;3.79;81.92;103596.44;5028030;28;20053;-55
2022/01/28 08:38:35;;;;;;;17.80;2.53;;;;;;;3.87;81.71;103595.84;5026936;28;20041;-61
2022/01/28 08:41:02;;;;;;;14.52;2.88;;;;;;;4.00;81.07;103602.44;5028084;28;20087;-55
2022/01/28 08:43:27;;;;;;;15.60;2.70;;;;;;;4.09;80.94;103607.13;5026780;28;20448;-57
2022/01/28 08:45:53;;;;;;;17.70;3.10;;;;;;;4.19;80.94;103604.03;5027601;28;20087;-54
2022/01/28 08:48:18;;;;;;;16.17;2.50;;;;;;;4.27;80.22;103604.28;5027146;28;20033;-56
2022/01/28 08:50:44;;;;;;;25.02;2.67;;;;;;;4.29;80.00;103611.38;5027924;28;20030;-54
2022/01/28 08:53:10;;;;;;;11.45;2.00;;;;;;;4.32;79.92;103604.47;5027365;28;20024;-55
2022/01/28 08:55:37;;;;;;;23.05;3.40;;;;;;;4.36;80.04;103609.00;5027832;28;20091;-51
2022/01/28 08:58:03;;;;;;;17.70;2.80;;;;;;;4.36;80.07;103612.47;5026899;28;20022;-54
2022/01/28 09:00:29;;;;;;;16.75;3.00;;;;;;;4.38;80.01;103610.81;5021172;28;20041;-55
2022/01/28 09:02:54;;;;;;;17.27;3.05;;;;;;;4.38;80.23;103615.13;5007949;28;20024;-57
2022/01/28 09:05:20;;;;;;;16.45;2.30;;;;;;;4.40;80.33;103611.75;5013973;28;20128;-56
2022/01/28 09:07:45;;;;;;;13.57;2.50;;;;;;;4.44;80.23;103607.53;5015576;28;20068;-57
2022/01/28 09:10:18;;;;;;;16.27;2.72;;;;;;;4.51;80.12;103606.94;5023593;28;20041;-57
2022/01/28 09:15:29;;;;;;;14.10;2.70;;;;;;;4.66;79.85;103627.50;5025857;28;20498;-57
2022/01/28 09:17:57;;;;;;;15.57;2.28;;;;;;;4.75;79.67;103629.53;5026742;28;20025;-57
2022/01/28 09:20:22;;;;;;;17.23;2.72;;;;;;;4.80;79.71;103635.84;5025546;28;20488;-58
2022/01/28 09:22:47;;;;;;;14.05;2.65;;;;;;;4.89;79.32;103645.72;5019450;28;20030;-56
2022/01/28 09:25:13;;;;;;;9.90;2.20;;;;;;;4.98;79.32;103641.63;5016211;28;20101;-53
2022/01/28 09:27:38;;;;;;;14.23;3.08;;;;;;;5.11;78.94;103637.72;5014482;28;20516;-56
2022/01/28 09:30:04;;;;;;;22.85;2.92;;;;;;;5.23;78.75;103639.84;5012416;28;20236;-55
2022/01/28 09:32:29;;;;;;;25.67;2.67;;;;;;;5.35;78.20;103640.28;5029906;28;20540;-55
2022/01/28 09:34:55;;;;;;;21.20;3.28;;;;;;;5.51;77.79;103636.44;5025530;28;20117;-57
2022/01/28 09:37:20;;;;;;;21.38;3.10;;;;;;;5.63;77.52;103632.44;5026019;28;20109;-55
2022/01/28 09:39:46;;;;;;;20.95;2.97;;;;;;;5.73;77.44;103626.66;5026857;28;20061;-59
2022/01/28 09:42:14;;;;;;;35.00;3.25;;;;;;;5.88;76.97;103639.34;5026885;28;20029;-56
2022/01/28 09:44:40;;;;;;;24.50;2.87;;;;;;;5.97;76.88;103635.22;4997875;28;20052;-59
2022/01/28 09:47:06;;;;;;;24.02;2.60;;;;;;;6.04;76.26;103637.22;5003015;28;20052;-54
2022/01/28 09:49:32;;;;;;;19.60;2.83;;;;;;;6.06;76.55;103632.94;5002169;28;20029;-55
2022/01/28 09:51:58;;;;;;;14.82;3.13;;;;;;;6.14;76.65;103633.16;5002530;28;20065;-57
2022/01/28 09:54:23;;;;;;;24.00;3.83;;;;;;;6.18;76.99;103633.28;5002163;28;20029;-56
2022/01/28 09:56:49;;;;;;;15.85;2.60;;;;;;;6.26;76.90;103623.03;5003333;28;20075;-55
2022/01/28 09:59:14;;;;;;;23.63;2.95;;;;;;;6.30;76.16;103622.28;5002055;28;20468;-56
2022/01/28 10:01:53;;;;;;;17.75;3.10;;;;;;;6.30;76.01;103622.28;5005739;28;20029;-56
2022/01/28 10:04:19;;;;;;;22.33;2.67;;;;;;;6.34;75.67;103622.38;5003591;28;20020;-56
2022/01/28 10:06:46;;;;;;;20.20;3.00;;;;;;;6.35;75.77;103624.16;5002376;28;20479;-54
2022/01/28 10:09:14;;;;;;;16.55;2.65;;;;;;;6.36;75.28;103628.53;5002519;28;20079;-55
2022/01/28 10:11:42;;;;;;;16.45;3.03;;;;;;;6.43;75.15;103630.50;5004577;28;20108;-58
2022/01/28 10:14:14;;;;;;;22.02;3.33;;;;;;;6.47;75.02;103632.34;5002207;28;20534;-57
2022/01/28 10:16:40;;;;;;;20.30;2.83;;;;;;;6.51;74.89;103636.84;5003830;28;20945;-55
2022/01/28 10:19:06;;;;;;;21.10;3.20;;;;;;;6.60;74.64;103637.94;4992567;28;20061;-53
2022/01/28 10:21:39;;;;;;;19.58;2.85;;;;;;;6.63;74.23;103643.28;4983325;28;20037;-52
2022/01/28 10:24:18;;;;;;;15.80;2.40;;;;;;;6.72;73.81;103642.63;4984528;28;20030;-55
2022/01/28 10:26:52;;;;;;;15.75;2.08;;;;;;;6.75;73.29;103647.97;4987852;28;20120;-53
2022/01/28 10:29:30;;;;;;;15.43;1.88;;;;;;;6.80;72.85;103649.88;5004983;28;20112;-56
2022/01/28 10:32:07;;;;;;;16.47;3.00;;;;;;;6.86;72.81;103650.91;5006865;28;20025;-57
2022/01/28 10:34:34;;;;;;;10.05;1.90;;;;;;;6.90;72.30;103655.38;5006700;28;20072;-53
2022/01/28 10:37:10;;;;;;;9.50;1.73;;;;;;;6.96;72.19;103647.66;5007482;28;20116;-54
2022/01/28 10:39:40;;;;;;;12.95;2.33;;;;;;;7.03;71.95;103648.72;5007734;28;20860;-55
2022/01/28 10:42:05;;;;;;;17.23;2.25;;;;;;;7.15;70.96;103650.75;5006383;28;20037;-55
2022/01/28 10:44:31;;;;;;;13.63;2.75;;;;;;;7.28;70.31;103646.72;5004711;28;20380;-54
2022/01/28 10:47:03;;;;;;;16.13;2.55;;;;;;;7.36;70.13;103647.81;5004053;28;20037;-55
2022/01/28 10:49:35;;;;;;;11.52;1.65;;;;;;;7.57;69.26;103636.97;5007385;28;20041;-52
2022/01/28 10:52:09;;;;;;;13.93;2.22;;;;;;;7.71;68.57;103639.03;5007204;28;20029;-55
2022/01/28 10:54:36;;;;;;;10.90;1.90;;;;;;;7.99;68.28;103634.38;5005961;28;20603;-53
2022/01/28 10:57:02;;;;;;;9.55;1.92;;;;;;;8.17;67.57;103626.03;5005698;28;20539;-54
2022/01/28 10:59:31;;;;;;;14.48;2.05;;;;;;;8.24;67.14;103634.03;5023232;28;20343;-56
2022/01/28 11:01:56;;;;;;;14.65;2.22;;;;;;;8.32;66.08;103620.22;5010515;28;20072;-55
2022/01/28 11:04:23;;;;;;;11.43;2.22;;;;;;;8.30;66.61;103624.53;5006431;28;20037;-53
2022/01/28 11:06:50;;;;;;;18.65;2.55;;;;;;;8.30;66.70;103626.25;5006488;28;20122;-57
2022/01/28 11:09:18;;;;;;;14.38;2.20;;;;;;;8.33;66.33;103624.59;5007478;28;20898;-56
2022/01/28 11:11:44;;;;;;;23.83;3.15;;;;;;;8.33;66.22;103613.19;5006837;28;20055;-52
2022/01/28 11:14:10;;;;;;;13.25;2.25;;;;;;;8.46;66.42;103611.72;5005691;28;20025;-54
2022/01/28 11:16:35;;;;;;;16.90;2.30;;;;;;;8.73;65.79;103615.72;5003978;28;20033;-55
2022/01/28 11:19:02;;;;;;;16.02;2.08;;;;;;;8.72;65.79;103612.25;5006170;28;20760;-55
2022/01/28 11:22:01;;;;;;;9.98;2.08;;;;;;;8.84;65.53;103601.06;5004626;28;20519;-53
2022/01/28 11:24:35;;;;;;;6.88;1.60;;;;;;;8.96;63.98;103594.25;5006703;28;20897;-52
2022/01/28 11:27:07;;;;;;;13.15;2.15;;;;;;;8.94;63.76;103581.06;5000401;28;20042;-53
2022/01/28 11:29:33;;;;;;;13.82;2.45;;;;;;;8.92;63.91;103581.91;5001217;28;20108;-57
2022/01/28 11:32:13;;;;;;;13.73;2.42;;;;;;;8.77;64.69;103586.03;5004831;28;20124;-56
2022/01/28 11:34:57;;;;;;;14.18;2.22;;;;;;;8.90;64.51;103586.25;5002419;28;20022;-52
2022/01/28 11:37:27;;;;;;;21.08;2.60;;;;;;;8.83;65.16;103585.25;4994756;28;20052;-54
2022/01/28 11:39:52;;;;;;;15.40;2.97;;;;;;;8.96;64.33;103581.09;5005991;28;20484;-52
2022/01/28 11:42:29;;;;;;;19.17;2.33;;;;;;;9.00;63.38;103577.66;5020356;28;20080;-52
2022/01/28 11:44:57;;;;;;;12.65;2.53;;;;;;;9.08;64.15;103583.03;5027923;28;20025;-53
2022/01/28 11:47:25;;;;;;;15.07;2.00;;;;;;;9.23;64.45;103577.16;5028452;28;20059;-55
2022/01/28 11:49:55;;;;;;;16.77;2.90;;;;;;;9.45;63.11;103561.72;5026478;28;20052;-55
2022/01/28 11:52:25;;;;;;;17.65;2.97;;;;;;;9.76;61.87;103564.75;5028183;28;20029;-57
2022/01/28 11:54:51;;;;;;;13.55;2.40;;;;;;;9.73;62.51;103567.34;5027873;28;20033;-54
2022/01/28 11:57:18;;;;;;;12.02;2.17;;;;;;;9.90;61.50;103566.69;5028073;28;20025;-50
2022/01/28 11:59:44;;;;;;;11.23;2.15;;;;;;;9.98;61.13;103562.41;5033471;28;20431;-53
2022/01/28 12:02:12;;;;;;;17.75;2.53;;;;;;;10.10;61.21;103556.38;5023502;28;20686;-54
2022/01/28 12:04:44;;;;;;;10.23;2.30;;;;;;;9.93;60.72;103548.31;5014473;28;20025;-53
2022/01/28 12:07:18;;;;;;;8.23;1.77;;;;;;;9.88;58.19;103539.44;5015058;28;20425;-54
2022/01/28 12:09:48;;;;;;;12.15;2.10;;;;;;;9.68;59.62;103532.16;5026607;28;20088;-54
2022/01/28 12:12:38;;;;;;;8.52;2.17;;;;;;;9.58;60.58;103542.56;5027817;28;20475;-54
2022/01/28 12:15:16;;;;;;;9.10;2.10;;;;;;;9.65;61.18;103527.75;5029665;28;20041;-51
2022/01/28 12:17:44;;;;;;;12.82;2.45;;;;;;;10.33;59.36;103521.50;5026792;28;20021;-53
2022/01/28 12:20:15;;;;;;;10.67;1.60;;;;;;;11.22;57.67;103527.53;5007389;28;20495;-55
2022/01/28 12:22:59;;;;;;;12.75;2.42;;;;;;;11.44;54.77;103522.41;5017382;28;20033;-55
2022/01/28 12:25:37;;;;;;;14.48;2.83;;;;;;;11.64;54.94;103514.59;5008409;28;20030;-53
2022/01/28 12:28:24;;;;;;;18.70;2.60;;;;;;;11.50;55.96;103510.13;5007012;28;20029;-51
2022/01/28 12:31:08;;;;;;;14.50;2.22;;;;;;;11.50;55.19;103509.25;5008163;28;20033;-57
2022/01/28 12:33:36;;;;;;;23.55;3.00;;;;;;;12.60;52.53;103500.75;5007385;28;20022;-52
2022/01/28 12:36:14;;;;;;;12.07;2.78;;;;;;;13.45;50.73;103493.56;5006842;28;20036;-52
2022/01/28 12:38:55;;;;;;;13.07;2.40;;;;;;;13.86;49.97;103483.72;5007615;28;20038;-55
2022/01/28 12:41:23;;;;;;;17.33;2.70;;;;;;;13.76;49.00;103479.34;5008186;28;20026;-53
2022/01/28 12:43:48;;;;;;;10.65;2.53;;;;;;;13.54;48.98;103483.88;5019552;28;20021;-52
2022/01/28 12:46:15;;;;;;;13.70;2.13;;;;;;;13.27;49.87;103486.53;5009452;28;20040;-55
2022/01/28 12:48:48;;;;;;;12.70;2.65;;;;;;;13.01;51.10;103476.91;5027306;28;20029;-53
2022/01/28 12:51:14;;;;;;;19.38;3.20;;;;;;;13.78;49.78;103477.56;5026323;28;20037;-53
2022/01/28 12:53:43;;;;;;;15.52;3.10;;;;;;;14.63;47.85;103457.50;5028078;28;20021;-55
2022/01/28 12:56:09;;;;;;;9.83;2.30;;;;;;;14.60;47.79;103460.19;5021130;28;20542;-52
2022/01/28 12:58:37;;;;;;;11.35;2.20;;;;;;;14.99;45.51;103458.97;5013937;28;20793;-52